Time;durP1;ratioP1;P1;durP2;ratioP2;P2;SDS_P1;SDS_P2;PMS_P1;PMS_P2;Temp;Humidity;BMP_temperature;BMP_pressure;BME280_temperature;BME280_humidity;BME280_pressure;Samples;Min_cycle;Max_cycle;Signal;HPM_P1;HPM_P2
2024/04/20 00:01:23;;;;;;;7.30;1.98;;;;;;;8.48;64.33;99453.88;4476875;26;20078;-68
2024/04/20 00:03:23;;;;;;;7.72;1.83;;;;;;;8.83;63.58;99453.19;4445882;26;20012;-67
2024/04/20 00:05:24;;;;;;;6.50;1.70;;;;;;;8.97;63.06;99449.19;4477551;26;20010;-68
2024/04/20 00:07:24;;;;;;;6.78;1.48;;;;;;;8.63;64.06;99447.09;4477100;26;20214;-67
2024/04/20 00:09:25;;;;;;;7.65;1.83;;;;;;;8.50;63.99;99458.06;4479755;26;19996;-68
2024/04/20 00:11:27;;;;;;;13.98;2.70;;;;;;;8.83;63.08;99453.19;4478383;26;20527;-68
2024/04/20 00:13:27;;;;;;;6.53;2.40;;;;;;;8.57;63.92;99459.19;4479634;26;20000;-66
2024/04/20 00:15:28;;;;;;;6.28;1.60;;;;;;;8.61;63.83;99458.88;4479195;26;20023;-67
2024/04/20 00:17:28;;;;;;;12.88;6.35;;;;;;;8.37;64.61;99457.53;4481049;26;19999;-67
2024/04/20 00:19:28;;;;;;;7.78;3.83;;;;;;;8.64;63.74;99459.44;4480545;26;20003;-67
2024/04/20 00:21:29;;;;;;;6.40;2.30;;;;;;;8.50;64.27;99458.06;4478495;26;20003;-67
2024/04/20 00:23:29;;;;;;;7.68;2.45;;;;;;;8.53;64.31;99452.47;4479454;26;20000;-67
2024/04/20 00:25:30;;;;;;;7.57;1.85;;;;;;;8.52;64.11;99466.75;4449150;26;19996;-68
2024/04/20 00:27:31;;;;;;;6.97;2.10;;;;;;;8.35;64.17;99456.84;4480026;26;20966;-69
2024/04/20 00:29:32;;;;;;;4.00;1.48;;;;;;;8.39;64.52;99458.25;4479559;26;20011;-68
2024/04/20 00:31:32;;;;;;;10.18;1.90;;;;;;;8.64;63.61;99455.94;4480554;26;20060;-69
2024/04/20 00:33:33;;;;;;;7.07;2.00;;;;;;;8.53;64.34;99462.28;4448888;26;20015;-68
2024/04/20 00:35:39;;;;;;;8.32;1.63;;;;;;;8.53;64.88;99459.63;4449100;26;20477;-68
2024/04/20 00:37:40;;;;;;;7.05;1.42;;;;;;;8.34;65.37;99455.16;4480252;26;20010;-68
2024/04/20 00:39:40;;;;;;;8.90;2.13;;;;;;;8.37;65.24;99461.03;4449689;26;20050;-68
2024/04/20 00:41:46;;;;;;;7.68;2.08;;;;;;;8.39;65.21;99455.59;4481005;26;20007;-68
2024/04/20 00:43:46;;;;;;;4.95;1.55;;;;;;;8.54;65.09;99462.13;4480413;26;20072;-68
2024/04/20 00:45:47;;;;;;;4.65;1.75;;;;;;;8.37;65.35;99473.53;4447783;26;20016;-68
2024/04/20 00:47:48;;;;;;;4.30;1.73;;;;;;;8.42;65.72;99473.91;4479951;26;20003;-68
2024/04/20 00:49:48;;;;;;;7.15;1.52;;;;;;;8.19;66.25;99471.59;4479931;26;20077;-68
2024/04/20 00:51:51;;;;;;;6.10;1.67;;;;;;;8.40;65.98;99462.59;4446358;26;20022;-68
2024/04/20 00:53:53;;;;;;;4.88;1.50;;;;;;;8.61;65.22;99466.88;4480287;26;20229;-67
2024/04/20 00:55:53;;;;;;;7.00;2.42;;;;;;;8.73;64.45;99469.22;4479809;26;20065;-69
2024/04/20 00:57:57;;;;;;;7.00;1.98;;;;;;;8.21;66.07;99476.78;4482764;26;20612;-68
2024/04/20 00:59:58;;;;;;;5.82;1.75;;;;;;;8.09;66.56;99476.94;4492504;26;20004;-68
2024/04/20 01:01:58;;;;;;;8.27;1.50;;;;;;;8.19;66.63;99481.41;4483548;26;20018;-68
2024/04/20 01:03:59;;;;;;;5.72;1.58;;;;;;;8.31;65.93;99479.44;4479849;26;20003;-68
2024/04/20 01:06:00;;;;;;;6.00;1.38;;;;;;;8.28;66.18;99478.72;4483604;26;19999;-68
2024/04/20 01:08:00;;;;;;;8.35;1.90;;;;;;;8.31;66.36;99474.09;4501725;26;19996;-72
2024/04/20 01:10:01;;;;;;;8.57;1.88;;;;;;;8.15;66.38;99475.53;4487031;26;19996;-68
2024/04/20 01:12:01;;;;;;;7.25;1.65;;;;;;;8.20;66.52;99483.09;4446826;26;20083;-68
2024/04/20 01:14:02;;;;;;;6.53;1.58;;;;;;;8.49;65.25;99475.06;4479303;26;20105;-68
2024/04/20 01:16:03;;;;;;;7.40;1.35;;;;;;;8.28;65.57;99484.06;4478824;26;20000;-68
2024/04/20 01:18:04;;;;;;;8.35;1.50;;;;;;;8.18;65.89;99496.56;4479671;26;20011;-68
2024/04/20 01:20:09;;;;;;;6.18;1.20;;;;;;;8.50;64.95;99490.03;4479008;26;19999;-68
2024/04/20 01:22:12;;;;;;;6.57;1.65;;;;;;;8.17;65.92;99494.88;4477920;26;20007;-67
2024/04/20 01:24:15;;;;;;;4.15;1.38;;;;;;;7.93;66.28;99503.31;4480136;26;20007;-67
2024/04/20 01:26:16;;;;;;;7.25;2.08;;;;;;;8.19;65.45;99505.38;4479970;26;20444;-67
2024/04/20 01:28:17;;;;;;;4.10;1.23;;;;;;;8.27;64.87;99498.34;4480561;26;20006;-67
2024/04/20 01:30:18;;;;;;;6.45;1.95;;;;;;;8.19;65.02;99505.38;4480073;26;20003;-67
2024/04/20 01:32:18;;;;;;;3.90;1.30;;;;;;;7.97;65.95;99502.06;4479302;26;20010;-67
2024/04/20 01:34:19;;;;;;;7.00;1.60;;;;;;;7.98;65.86;99506.41;4479517;26;20007;-68
2024/04/20 01:36:19;;;;;;;11.70;2.47;;;;;;;8.09;65.24;99508.06;4480021;26;19999;-68
2024/04/20 01:38:20;;;;;;;4.75;1.75;;;;;;;8.02;65.42;99512.28;4480194;26;20007;-68
2024/04/20 01:40:20;;;;;;;6.82;1.83;;;;;;;8.08;65.37;99507.19;4458762;26;19999;-68
2024/04/20 01:42:21;;;;;;;6.50;1.40;;;;;;;8.20;64.70;99509.72;4464812;26;20000;-68
2024/04/20 01:44:21;;;;;;;4.95;1.67;;;;;;;8.00;65.45;99523.03;4460328;26;20004;-68
2024/04/20 01:46:22;;;;;;;5.32;1.40;;;;;;;8.08;65.17;99528.50;4450249;26;20008;-67
2024/04/20 01:48:22;;;;;;;6.57;2.13;;;;;;;8.09;64.79;99521.38;4456651;26;20028;-68
2024/04/20 01:50:23;;;;;;;6.38;2.08;;;;;;;7.96;65.07;99530.47;4460797;26;20011;-67
2024/04/20 01:52:23;;;;;;;6.35;1.40;;;;;;;7.92;65.07;99526.44;4471493;26;20015;-68
2024/04/20 01:54:24;;;;;;;4.95;1.45;;;;;;;7.85;65.47;99532.44;4449818;26;20000;-68
2024/04/20 01:56:24;;;;;;;6.70;1.67;;;;;;;8.16;64.59;99527.81;4453739;26;20024;-68
2024/04/20 01:58:27;;;;;;;3.88;1.33;;;;;;;8.11;64.57;99525.56;4467972;26;20392;-72
2024/04/20 02:00:27;;;;;;;4.28;1.30;;;;;;;8.00;64.98;99527.53;4469243;26;20015;-68
2024/04/20 02:02:29;;;;;;;8.10;2.03;;;;;;;8.24;64.13;99541.25;4467294;26;20256;-69
2024/04/20 02:04:29;;;;;;;4.38;1.20;;;;;;;8.47;63.43;99534.75;4469603;26;20008;-68
2024/04/20 02:06:30;;;;;;;5.57;1.63;;;;;;;8.00;64.75;99538.19;4468712;26;19999;-67
2024/04/20 02:08:30;;;;;;;6.90;1.75;;;;;;;8.11;64.36;99533.53;4479447;26;20443;-68
2024/04/20 02:10:31;;;;;;;7.43;1.57;;;;;;;8.21;64.28;99544.22;4478373;26;19999;-68
2024/04/20 02:12:32;;;;;;;6.00;1.92;;;;;;;8.24;64.30;99543.91;4477102;26;20225;-67
2024/04/20 02:14:32;;;;;;;6.40;1.88;;;;;;;8.00;64.78;99546.16;4476705;26;20471;-68
2024/04/20 02:16:33;;;;;;;7.28;2.17;;;;;;;8.13;64.70;99536.06;4478793;26;20000;-67
2024/04/20 02:18:34;;;;;;;6.10;2.10;;;;;;;8.11;64.60;99544.19;4479245;26;20006;-67
2024/04/20 02:20:34;;;;;;;7.57;1.50;;;;;;;7.91;65.05;99540.72;4478834;26;20039;-67
2024/04/20 02:22:35;;;;;;;8.02;1.40;;;;;;;7.97;64.97;99548.13;4476834;26;20004;-68
2024/04/20 02:24:36;;;;;;;5.55;1.38;;;;;;;8.13;64.65;99546.72;4478420;26;19999;-67
2024/04/20 02:26:36;;;;;;;5.78;1.42;;;;;;;8.11;64.80;99549.53;4478871;26;20012;-67
2024/04/20 02:28:36;;;;;;;5.30;1.40;;;;;;;7.94;64.80;99563.53;4448410;26;20016;-67
2024/04/20 02:30:37;;;;;;;9.35;2.15;;;;;;;7.83;64.99;99556.53;4477095;26;19995;-68
2024/04/20 02:32:37;;;;;;;4.93;1.60;;;;;;;7.91;65.11;99564.66;4477995;26;20007;-67
2024/04/20 02:34:38;;;;;;;5.55;1.40;;;;;;;8.19;64.43;99562.13;4456396;26;20278;-67
2024/04/20 02:36:38;;;;;;;9.32;1.55;;;;;;;7.93;64.91;99561.84;4449709;26;20352;-67
2024/04/20 02:38:41;;;;;;;5.67;1.27;;;;;;;7.86;65.02;99552.75;4460868;26;20011;-68
2024/04/20 02:40:41;;;;;;;6.32;1.70;;;;;;;7.88;65.42;99561.44;4466912;26;20238;-67
2024/04/20 02:42:42;;;;;;;6.28;1.33;;;;;;;7.70;65.83;99564.75;4449261;26;20322;-67
2024/04/20 02:44:42;;;;;;;6.90;1.50;;;;;;;7.67;65.84;99561.53;4448763;26;20007;-67
2024/04/20 02:46:43;;;;;;;5.68;1.50;;;;;;;7.82;65.47;99557.53;4449238;26;20011;-67
2024/04/20 02:48:45;;;;;;;7.82;1.63;;;;;;;7.76;65.48;99556.25;4450332;26;19997;-67
2024/04/20 02:50:45;;;;;;;5.55;1.90;;;;;;;7.69;65.69;99564.91;4450512;26;20024;-67
2024/04/20 02:52:47;;;;;;;8.25;1.88;;;;;;;7.91;64.47;99550.50;4448374;26;20007;-67
2024/04/20 02:54:47;;;;;;;7.88;1.85;;;;;;;7.86;64.45;99561.56;4450242;26;20000;-67
2024/04/20 02:56:48;;;;;;;6.63;1.48;;;;;;;7.81;64.81;99571.81;4449636;26;20337;-67
2024/04/20 02:58:49;;;;;;;6.32;1.88;;;;;;;7.64;65.19;99573.31;4450524;26;20000;-67
2024/04/20 03:01:00;;;;;;;5.95;1.45;;;;;;;7.86;64.60;99571.38;4449632;26;20020;-67
2024/04/20 03:03:00;;;;;;;6.65;1.42;;;;;;;7.62;65.24;99570.78;4449119;26;20000;-67
2024/04/20 03:05:01;;;;;;;8.57;1.70;;;;;;;7.58;65.44;99574.69;4449752;26;20028;-67
2024/04/20 03:07:02;;;;;;;5.53;1.83;;;;;;;7.86;64.44;99579.38;4449498;26;20230;-68
2024/04/20 03:09:03;;;;;;;6.68;1.55;;;;;;;7.82;64.24;99578.81;4419218;26;20009;-67
2024/04/20 03:11:03;;;;;;;5.90;1.42;;;;;;;7.69;64.86;99586.19;4449460;26;20004;-67
2024/04/20 03:13:04;;;;;;;7.30;2.22;;;;;;;7.52;65.12;99588.56;4447980;26;20037;-67
2024/04/20 03:15:04;;;;;;;6.55;1.75;;;;;;;7.78;64.88;99583.56;4445805;26;20430;-67
2024/04/20 03:17:06;;;;;;;5.75;1.80;;;;;;;7.93;64.34;99594.66;4449702;26;20015;-67
2024/04/20 03:19:08;;;;;;;4.45;1.38;;;;;;;7.70;64.87;99593.22;4450231;26;20073;-67
2024/04/20 03:21:08;;;;;;;5.22;1.30;;;;;;;7.65;65.02;99597.09;4450212;26;20048;-67
2024/04/20 03:23:08;;;;;;;6.93;1.60;;;;;;;7.53;65.42;99595.56;4448373;26;20000;-67
2024/04/20 03:25:12;;;;;;;6.93;2.20;;;;;;;7.54;65.83;99594.59;4450169;26;20000;-67
2024/04/20 03:27:12;;;;;;;5.35;1.70;;;;;;;7.82;65.13;99597.44;4455698;26;20440;-68
2024/04/20 03:29:12;;;;;;;6.17;1.33;;;;;;;7.70;65.66;99598.53;4451829;26;20047;-67
2024/04/20 03:31:13;;;;;;;6.05;1.30;;;;;;;7.55;66.24;99600.72;4452467;26;20231;-67
2024/04/20 03:33:16;;;;;;;6.28;2.10;;;;;;;7.61;66.40;99606.34;4428852;26;20012;-67
2024/04/20 03:35:17;;;;;;;5.95;1.52;;;;;;;7.72;66.38;99612.53;4464229;26;20574;-67
2024/04/20 03:37:19;;;;;;;5.75;1.58;;;;;;;7.68;66.39;99609.31;4464610;26;20000;-67
2024/04/20 03:39:22;;;;;;;7.43;1.95;;;;;;;7.57;66.72;99612.91;4454551;26;20000;-67
2024/04/20 03:41:22;;;;;;;6.70;1.55;;;;;;;7.54;67.69;99615.88;4456763;26;20446;-68
2024/04/20 03:43:24;;;;;;;8.82;1.95;;;;;;;7.52;67.78;99612.50;4450456;26;20011;-66
2024/04/20 03:45:24;;;;;;;9.32;1.77;;;;;;;7.26;68.77;99615.63;4447226;26;20015;-66
2024/04/20 03:47:24;;;;;;;6.18;1.85;;;;;;;7.58;67.82;99617.25;4449014;26;20326;-66
2024/04/20 03:49:25;;;;;;;5.93;1.98;;;;;;;7.65;68.10;99623.72;4446448;26;20000;-67
2024/04/20 03:51:26;;;;;;;7.20;2.28;;;;;;;7.92;66.86;99624.03;4446401;26;20010;-67
2024/04/20 03:53:26;;;;;;;;;;;;;;;7.94;66.16;99627.41;4448852;26;20585;-67
2024/04/20 03:55:27;;;;;;;10.83;2.00;;;;;;;7.62;67.79;99625.81;4448634;26;19967;-68
2024/04/20 03:57:28;;;;;;;8.33;1.97;;;;;;;7.72;67.81;99633.81;4448328;26;20000;-66
2024/04/20 03:59:28;;;;;;;7.07;2.22;;;;;;;7.57;68.24;99634.19;4417739;26;20790;-66
2024/04/20 04:01:29;;;;;;;8.35;1.83;;;;;;;7.67;67.97;99641.34;4448837;26;20000;-67
2024/04/20 04:03:30;;;;;;;7.75;1.85;;;;;;;7.84;67.31;99647.84;4448143;26;20012;-68
2024/04/20 04:05:31;;;;;;;8.65;1.92;;;;;;;7.81;67.38;99643.66;4448849;26;20000;-68
2024/04/20 04:07:31;;;;;;;8.32;2.38;;;;;;;7.58;67.44;99654.50;4448991;26;20003;-68
2024/04/20 04:09:32;;;;;;;6.27;2.30;;;;;;;7.51;68.11;99656.03;4451888;26;20000;-68
2024/04/20 04:11:34;;;;;;;9.43;2.47;;;;;;;7.39;68.10;99655.28;4470150;26;20219;-68
2024/04/20 04:13:34;;;;;;;7.60;2.17;;;;;;;7.49;67.77;99666.81;4455591;26;20629;-68
2024/04/20 04:15:36;;;;;;;7.30;2.35;;;;;;;7.46;67.82;99658.25;4446429;26;20047;-68
2024/04/20 04:17:37;;;;;;;9.73;1.75;;;;;;;7.48;67.78;99664.25;4450127;26;20007;-68
2024/04/20 04:19:37;;;;;;;6.57;1.65;;;;;;;7.39;68.23;99675.69;4450815;26;20000;-68
2024/04/20 04:21:38;;;;;;;6.68;1.88;;;;;;;7.77;66.97;99682.16;4451650;26;20032;-67
2024/04/20 04:23:39;;;;;;;7.38;2.22;;;;;;;7.66;67.05;99677.78;4447959;26;19996;-68
2024/04/20 04:25:39;;;;;;;7.07;2.05;;;;;;;7.81;66.75;99681.72;4448267;26;20007;-67
2024/04/20 04:27:40;;;;;;;4.85;1.80;;;;;;;7.91;66.10;99681.78;4447974;26;19997;-67
2024/04/20 04:29:40;;;;;;;13.15;2.22;;;;;;;7.81;66.12;99689.72;4448624;26;20015;-67
2024/04/20 04:31:40;;;;;;;4.88;1.90;;;;;;;7.58;66.67;99696.25;4448005;26;20008;-67
2024/04/20 04:33:41;;;;;;;9.75;1.60;;;;;;;7.51;66.65;99689.78;4447980;26;20000;-67
2024/04/20 04:35:41;;;;;;;4.85;1.40;;;;;;;7.52;66.67;99702.94;4447798;26;20810;-67
2024/04/20 04:37:43;;;;;;;6.73;2.23;;;;;;;7.46;66.53;99696.31;4448901;26;20003;-67
2024/04/20 04:39:43;;;;;;;;;;;;;;;7.74;65.18;99701.06;4418327;26;20438;-68
2024/04/20 04:41:44;;;;;;;4.40;1.40;;;;;;;7.68;65.42;99702.44;4448192;26;19956;-69
2024/04/20 04:43:44;;;;;;;6.65;1.70;;;;;;;7.30;66.02;99714.59;4448692;26;20074;-67
2024/04/20 04:45:45;;;;;;;6.82;1.50;;;;;;;7.42;65.26;99718.00;4449997;26;20010;-68
2024/04/20 04:47:45;;;;;;;4.53;1.70;;;;;;;7.24;65.59;99715.94;4421223;26;19993;-67
2024/04/20 04:49:46;;;;;;;4.72;1.70;;;;;;;7.09;66.06;99722.56;4449016;26;20044;-67
2024/04/20 04:51:46;;;;;;;5.73;1.63;;;;;;;7.13;65.90;99729.31;4447817;26;20007;-67
2024/04/20 04:53:47;;;;;;;4.95;1.30;;;;;;;7.20;65.42;99734.97;4417888;26;20231;-67
2024/04/20 04:55:48;;;;;;;6.60;2.20;;;;;;;7.19;65.70;99734.09;4450600;26;20036;-67
2024/04/20 04:57:48;;;;;;;4.25;1.30;;;;;;;7.10;65.61;99741.06;4420714;26;20662;-66
2024/04/20 04:59:49;;;;;;;3.80;1.30;;;;;;;7.01;65.82;99741.84;4452065;26;20015;-67
2024/04/20 05:01:52;;;;;;;5.83;1.50;;;;;;;7.00;66.37;99740.97;4452236;26;20071;-67
2024/04/20 05:03:53;;;;;;;5.68;1.50;;;;;;;6.98;66.20;99742.94;4452448;26;20230;-67
2024/04/20 05:05:53;;;;;;;3.50;1.25;;;;;;;6.99;66.05;99741.94;4420492;26;20453;-67
2024/04/20 05:07:54;;;;;;;5.25;1.70;;;;;;;6.91;66.31;99741.75;4451112;26;20069;-66
2024/04/20 05:09:54;;;;;;;4.07;1.40;;;;;;;6.96;65.83;99750.19;4451298;26;20000;-67
2024/04/20 05:11:55;;;;;;;4.60;1.35;;;;;;;7.17;65.37;99755.50;4450167;26;20088;-67
2024/04/20 05:13:55;;;;;;;4.05;1.48;;;;;;;7.18;65.00;99757.19;4456707;26;20004;-67
2024/04/20 05:15:55;;;;;;;5.37;1.47;;;;;;;6.91;65.95;99757.69;4432567;26;20009;-67
2024/04/20 05:17:57;;;;;;;4.47;1.80;;;;;;;7.02;65.71;99760.31;4440047;26;20232;-66
2024/04/20 05:19:58;;;;;;;4.05;1.63;;;;;;;6.72;66.61;99763.72;4466681;26;20019;-67
2024/04/20 05:21:58;;;;;;;5.72;2.08;;;;;;;6.92;66.38;99767.34;4427446;26;20017;-67
2024/04/20 05:24:02;;;;;;;5.43;1.98;;;;;;;7.17;65.50;99770.63;4424060;26;20170;-66
2024/04/20 05:26:02;;;;;;;3.63;1.25;;;;;;;7.02;66.02;99778.91;4451721;26;20714;-67
2024/04/20 05:28:03;;;;;;;5.15;1.70;;;;;;;7.48;64.89;99779.50;4450257;26;19996;-66
2024/04/20 05:30:05;;;;;;;3.33;1.25;;;;;;;7.53;64.71;99783.56;4450334;26;20011;-67
2024/04/20 05:32:05;;;;;;;5.70;1.73;;;;;;;7.34;65.12;99788.66;4449929;26;20007;-66
2024/04/20 05:34:05;;;;;;;4.38;1.83;;;;;;;7.48;64.56;99789.28;4450802;26;20000;-67
2024/04/20 05:36:06;;;;;;;4.00;1.77;;;;;;;7.42;64.74;99793.28;4450852;26;20000;-67
2024/04/20 05:38:07;;;;;;;7.85;2.00;;;;;;;7.14;65.60;99792.16;4450226;26;20005;-67
2024/04/20 05:40:08;;;;;;;4.23;1.80;;;;;;;7.22;65.32;99792.34;4450627;26;20334;-67
2024/04/20 05:42:08;;;;;;;5.10;1.60;;;;;;;7.18;65.52;99796.22;4456522;26;20239;-67
2024/04/20 05:44:08;;;;;;;6.00;1.70;;;;;;;7.52;64.72;99795.16;4470475;26;20008;-66
2024/04/20 05:46:09;;;;;;;4.30;1.67;;;;;;;7.85;63.56;99799.41;4453386;26;20338;-67
2024/04/20 05:48:09;;;;;;;4.57;1.70;;;;;;;7.99;63.42;99806.19;4450642;26;20008;-67
2024/04/20 05:50:10;;;;;;;9.68;2.22;;;;;;;7.85;63.62;99802.06;4450764;26;20703;-66
2024/04/20 05:52:10;;;;;;;4.40;1.60;;;;;;;7.86;63.74;99814.41;4419245;26;20753;-67
2024/04/20 05:54:11;;;;;;;7.72;2.45;;;;;;;7.61;63.74;99805.88;4450228;26;20008;-66
2024/04/20 05:56:12;;;;;;;5.72;2.28;;;;;;;7.30;64.68;99821.78;4450127;26;20012;-66
2024/04/20 05:58:12;;;;;;;4.78;2.15;;;;;;;7.70;64.06;99814.03;4450760;26;20896;-66
2024/04/20 06:00:13;;;;;;;5.10;1.97;;;;;;;7.57;63.94;99817.75;4449620;26;20008;-67
2024/04/20 06:02:13;;;;;;;4.75;1.95;;;;;;;7.16;64.87;99814.13;4450007;26;20238;-66
2024/04/20 06:04:16;;;;;;;7.97;2.45;;;;;;;7.88;62.96;99815.13;4452433;26;20448;-67
2024/04/20 06:06:16;;;;;;;4.35;1.98;;;;;;;7.80;63.37;99829.09;4421799;26;20013;-67
2024/04/20 06:08:16;;;;;;;5.85;2.00;;;;;;;7.76;63.08;99822.34;4452425;26;20073;-69
2024/04/20 06:10:17;;;;;;;4.40;1.70;;;;;;;7.84;63.42;99832.31;4422401;26;20037;-67
2024/04/20 06:12:17;;;;;;;3.23;1.83;;;;;;;8.00;62.70;99834.50;4456484;26;20270;-66
2024/04/20 06:14:18;;;;;;;5.95;2.00;;;;;;;8.08;62.30;99826.69;4426305;26;20280;-66
2024/04/20 06:16:20;;;;;;;4.65;1.92;;;;;;;8.11;62.64;99837.06;4459987;26;19992;-67
2024/04/20 06:18:21;;;;;;;4.80;1.98;;;;;;;8.17;62.64;99830.38;4463798;26;20012;-67
2024/04/20 06:20:22;;;;;;;4.95;1.98;;;;;;;7.95;62.57;99840.22;4461526;26;20554;-71
2024/04/20 06:22:22;;;;;;;4.50;1.90;;;;;;;8.24;62.00;99836.84;4458211;26;20019;-67
2024/04/20 06:24:23;;;;;;;4.85;2.20;;;;;;;7.98;62.52;99831.16;4455133;26;20000;-66
2024/04/20 06:26:26;;;;;;;5.28;2.50;;;;;;;8.05;62.51;99839.41;4452269;26;19996;-66
2024/04/20 06:28:26;;;;;;;5.97;2.00;;;;;;;8.10;62.68;99845.22;4451008;26;20000;-67
2024/04/20 06:30:27;;;;;;;7.00;2.00;;;;;;;8.23;62.47;99835.16;4451291;26;20448;-67
2024/04/20 06:32:27;;;;;;;5.85;1.98;;;;;;;7.75;63.00;99846.41;4449546;26;20008;-67
2024/04/20 06:34:28;;;;;;;5.32;2.00;;;;;;;8.21;62.13;99842.44;4419525;26;20015;-67
2024/04/20 06:36:28;;;;;;;4.75;2.40;;;;;;;8.16;62.38;99847.31;4450745;26;20000;-67
2024/04/20 06:38:29;;;;;;;5.35;2.10;;;;;;;7.84;62.74;99855.44;4451220;26;20326;-67
2024/04/20 06:40:29;;;;;;;4.97;2.00;;;;;;;8.01;62.70;99864.66;4450665;26;19996;-66
2024/04/20 06:42:31;;;;;;;6.10;2.15;;;;;;;8.34;61.83;99857.34;4419789;26;20290;-66
2024/04/20 06:44:31;;;;;;;5.72;2.30;;;;;;;8.23;62.07;99867.09;4450053;26;20007;-67
2024/04/20 06:46:31;;;;;;;4.95;2.10;;;;;;;8.45;61.71;99865.22;4418642;26;20416;-67
2024/04/20 06:48:32;;;;;;;4.97;2.08;;;;;;;8.64;60.94;99867.16;4449899;26;20344;-66
2024/04/20 06:50:35;;;;;;;7.15;2.38;;;;;;;8.20;61.81;99871.84;4449558;26;20004;-67
2024/04/20 06:52:37;;;;;;;5.72;2.35;;;;;;;8.52;61.48;99877.06;4448860;26;20001;-68
2024/04/20 06:54:37;;;;;;;4.35;1.75;;;;;;;8.80;60.84;99879.94;4419487;26;20029;-67
2024/04/20 06:56:38;;;;;;;6.30;2.13;;;;;;;8.87;60.63;99872.22;4450127;26;20558;-66
2024/04/20 06:58:41;;;;;;;5.60;1.90;;;;;;;8.55;61.23;99884.78;4449452;26;20012;-67
2024/04/20 07:00:41;;;;;;;5.32;2.38;;;;;;;8.56;61.29;99891.81;4419005;26;20069;-67
2024/04/20 07:02:42;;;;;;;7.57;2.88;;;;;;;8.25;61.91;99894.47;4418679;26;20599;-66
2024/04/20 07:04:42;;;;;;;5.95;2.28;;;;;;;8.21;61.90;99890.38;4418832;26;20193;-67
2024/04/20 07:06:43;;;;;;;7.32;2.00;;;;;;;8.54;61.11;99896.41;4451949;26;20000;-67
2024/04/20 07:08:44;;;;;;;12.00;2.40;;;;;;;8.21;61.80;99895.72;4452790;26;20340;-66
2024/04/20 07:11:00;;;;;;;7.00;2.33;;;;;;;7.96;61.91;99902.31;4449410;26;20023;-66
2024/04/20 07:13:01;;;;;;;4.68;2.00;;;;;;;8.12;61.91;99904.50;4449873;26;20000;-67
2024/04/20 07:15:02;;;;;;;5.15;2.30;;;;;;;8.59;60.84;99898.69;4460807;26;20049;-70
2024/04/20 07:17:03;;;;;;;4.38;2.03;;;;;;;8.85;60.18;99900.84;4458263;26;20015;-67
2024/04/20 07:19:03;;;;;;;7.57;2.17;;;;;;;8.81;59.79;99907.44;4448793;26;20008;-66
2024/04/20 07:21:07;;;;;;;8.15;2.10;;;;;;;9.09;59.23;99913.78;4449349;26;20011;-67
2024/04/20 07:23:08;;;;;;;6.22;2.40;;;;;;;9.20;58.82;99918.19;4448449;26;20012;-67
2024/04/20 07:25:08;;;;;;;4.15;1.95;;;;;;;9.41;58.56;99911.84;4449452;26;20000;-67
2024/04/20 07:27:09;;;;;;;7.67;2.47;;;;;;;9.18;59.11;99917.47;4452423;26;20008;-66
2024/04/20 07:29:09;;;;;;;6.70;2.28;;;;;;;9.18;58.28;99923.63;4421911;26;20235;-66
2024/04/20 07:31:10;;;;;;;6.60;2.10;;;;;;;9.39;57.85;99922.66;4451091;26;20365;-67
2024/04/20 07:33:11;;;;;;;4.53;2.10;;;;;;;9.71;57.10;99926.00;4451412;26;20015;-66
2024/04/20 07:35:13;;;;;;;7.97;2.17;;;;;;;9.66;57.15;99929.97;4450308;26;20050;-66
2024/04/20 07:37:13;;;;;;;5.88;2.35;;;;;;;9.78;57.01;99936.00;4450140;26;20070;-67
2024/04/20 07:39:14;;;;;;;4.47;2.00;;;;;;;9.81;56.62;99943.72;4450362;26;20030;-67
2024/04/20 07:41:14;;;;;;;7.60;2.38;;;;;;;9.77;56.24;99952.16;4451691;26;20003;-67
2024/04/20 07:43:15;;;;;;;5.13;2.10;;;;;;;10.26;55.46;99952.91;4449937;26;20402;-66
2024/04/20 07:45:16;;;;;;;7.85;2.38;;;;;;;9.93;55.69;99948.88;4451522;26;20004;-66
2024/04/20 07:47:16;;;;;;;6.60;1.70;;;;;;;10.59;54.59;99948.03;4449353;26;20015;-67
2024/04/20 07:49:17;;;;;;;5.53;1.83;;;;;;;10.50;54.52;99953.41;4455412;26;20004;-67
2024/04/20 07:51:18;;;;;;;6.13;2.05;;;;;;;10.72;53.48;99953.03;4459484;26;20008;-67
2024/04/20 07:53:19;;;;;;;6.90;2.17;;;;;;;10.90;52.75;99954.91;4430207;26;20012;-69
2024/04/20 07:55:19;;;;;;;4.70;1.83;;;;;;;10.99;52.43;99954.03;4467519;26;20004;-69
2024/04/20 07:57:19;;;;;;;5.60;2.28;;;;;;;10.53;51.17;99955.81;4436600;26;20012;-68
2024/04/20 07:59:20;;;;;;;5.43;2.10;;;;;;;10.56;51.55;99958.19;4462935;26;20011;-72
2024/04/20 08:01:20;;;;;;;4.03;1.70;;;;;;;10.42;51.93;99954.16;4466905;26;20011;-68
2024/04/20 08:03:21;;;;;;;4.95;1.73;;;;;;;10.49;52.06;99962.41;4466442;26;20610;-67
2024/04/20 08:05:21;;;;;;;5.00;1.90;;;;;;;9.98;52.40;99965.34;4437451;26;20009;-68
2024/04/20 08:07:22;;;;;;;5.97;2.17;;;;;;;9.57;53.43;99983.34;4465055;26;20024;-68
2024/04/20 08:09:22;;;;;;;4.80;1.70;;;;;;;9.84;53.18;99972.78;4464022;26;20559;-71
2024/04/20 08:11:25;;;;;;;6.18;1.90;;;;;;;10.01;52.53;99977.56;4463373;26;20000;-67
2024/04/20 08:13:25;;;;;;;4.65;1.67;;;;;;;10.16;52.49;99978.78;4462472;26;19996;-66
2024/04/20 08:15:27;;;;;;;4.15;1.70;;;;;;;10.23;52.15;99984.41;4462507;26;20008;-67
2024/04/20 08:17:28;;;;;;;6.03;1.92;;;;;;;10.42;51.53;99979.03;4463225;26;20043;-67
2024/04/20 08:19:28;;;;;;;4.72;1.73;;;;;;;10.45;51.67;99989.44;4461722;26;20618;-67
2024/04/20 08:21:29;;;;;;;5.13;1.90;;;;;;;9.98;52.79;99982.19;4433387;26;20068;-67
2024/04/20 08:23:29;;;;;;;7.25;1.85;;;;;;;9.64;52.69;100000.47;4459002;26;20011;-69
2024/04/20 08:25:29;;;;;;;5.65;2.08;;;;;;;9.43;52.86;99993.47;4457162;26;20008;-68
2024/04/20 08:27:30;;;;;;;4.35;2.08;;;;;;;9.55;52.65;99995.97;4419052;26;20041;-69
2024/04/20 08:29:32;;;;;;;5.57;2.10;;;;;;;9.74;52.64;100000.50;4455133;26;20007;-67
2024/04/20 08:31:32;;;;;;;4.65;2.10;;;;;;;9.83;52.48;100005.81;4421769;26;20082;-67
2024/04/20 08:33:33;;;;;;;6.88;2.63;;;;;;;10.26;51.36;100003.66;4450578;26;20012;-66
2024/04/20 08:35:34;;;;;;;5.35;2.38;;;;;;;10.30;50.50;99996.19;4456500;26;19996;-67
2024/04/20 08:37:36;;;;;;;4.63;2.08;;;;;;;10.97;49.44;99997.97;4458399;26;20256;-67
2024/04/20 08:39:37;;;;;;;5.03;2.10;;;;;;;11.24;49.00;99997.13;4427124;26;19997;-67
2024/04/20 08:41:51;;;;;;;3.78;1.50;;;;;;;11.06;47.11;99997.06;4455509;26;20057;-68
2024/04/20 08:44:00;;;;;;;4.53;1.40;;;;;;;11.00;47.86;100016.41;4456673;26;20080;-67
2024/04/20 08:46:05;;;;;;;3.65;1.52;;;;;;;10.90;48.20;100011.09;4456019;26;19996;-69
2024/04/20 08:48:09;;;;;;;6.65;1.60;;;;;;;10.71;48.00;100002.16;4463730;26;20011;-67
2024/04/20 08:50:13;;;;;;;5.85;1.65;;;;;;;10.65;48.75;100010.78;4432504;26;20004;-67
2024/04/20 08:52:14;;;;;;;7.47;1.80;;;;;;;10.55;48.87;100020.66;4465096;26;20006;-68
2024/04/20 08:54:16;;;;;;;6.15;2.13;;;;;;;10.76;48.69;100023.97;4451539;26;20000;-67
2024/04/20 08:56:18;;;;;;;4.05;1.65;;;;;;;10.56;48.94;100035.72;4450884;26;20007;-67
2024/04/20 08:58:19;;;;;;;5.22;1.77;;;;;;;10.54;48.94;100029.66;4450754;26;19997;-67
2024/04/20 09:00:20;;;;;;;4.32;2.10;;;;;;;10.35;49.28;100028.69;4450977;26;20383;-67
2024/04/20 09:02:27;;;;;;;4.20;1.60;;;;;;;10.76;48.49;100034.66;4421045;26;20001;-67
2024/04/20 09:04:28;;;;;;;4.25;1.67;;;;;;;10.97;48.66;100041.59;4450998;26;20012;-66
2024/04/20 09:06:29;;;;;;;6.38;1.70;;;;;;;10.40;49.18;100039.81;4420071;26;20658;-67
2024/04/20 09:08:31;;;;;;;5.68;1.80;;;;;;;10.37;49.14;100040.13;4450940;26;20000;-66
2024/04/20 09:10:31;;;;;;;4.10;1.40;;;;;;;10.64;48.93;100041.16;4450371;26;20020;-67
2024/04/20 09:12:31;;;;;;;5.20;1.83;;;;;;;10.90;48.47;100037.84;4450053;26;20001;-67
2024/04/20 09:14:32;;;;;;;4.20;1.50;;;;;;;11.39;47.78;100035.75;4451944;26;20004;-66
2024/04/20 09:16:33;;;;;;;3.65;1.63;;;;;;;11.65;47.06;100037.69;4451265;26;20000;-66
2024/04/20 09:18:34;;;;;;;4.43;1.65;;;;;;;11.98;46.04;100027.31;4420623;26;20001;-67
2024/04/20 09:20:36;;;;;;;5.20;1.63;;;;;;;12.18;45.66;100037.88;4448891;26;20087;-67
2024/04/20 09:22:36;;;;;;;4.57;1.45;;;;;;;12.28;44.00;100033.22;4450394;26;20491;-66
2024/04/20 09:24:37;;;;;;;4.38;1.30;;;;;;;12.86;43.71;100028.22;4420547;26;20020;-67
2024/04/20 09:26:37;;;;;;;3.42;1.20;;;;;;;12.97;42.53;100024.44;4450776;26;20004;-67
2024/04/20 09:28:39;;;;;;;4.07;1.20;;;;;;;13.03;42.34;100034.50;4450755;26;20066;-66
2024/04/20 09:30:39;;;;;;;7.20;1.42;;;;;;;13.05;41.91;100035.19;4420680;26;20037;-68
2024/04/20 09:32:42;;;;;;;4.03;1.48;;;;;;;12.81;42.56;100041.28;4450550;26;20001;-67
2024/04/20 09:34:43;;;;;;;4.32;1.50;;;;;;;12.38;42.53;100037.66;4450033;26;20036;-67